Time;durP1;ratioP1;P1;durP2;ratioP2;P2;SDS_P1;SDS_P2;PMS_P1;PMS_P2;Temp;Humidity;BMP_temperature;BMP_pressure;BME280_temperature;BME280_humidity;BME280_pressure;Samples;Min_cycle;Max_cycle;Signal;HPM_P1;HPM_P2
2021/10/19 00:00:35;;;;;;;35.78;21.37;;;;;;;7.50;76.88;98153.53;1781214;80;25766;-83
2021/10/19 00:03:03;;;;;;;34.80;20.25;;;;;;;7.48;76.95;98160.95;1780925;80;25813;-83
2021/10/19 00:05:30;;;;;;;35.50;20.62;;;;;;;7.46;76.80;98162.97;1781063;80;27307;-83
2021/10/19 00:07:56;;;;;;;32.95;20.23;;;;;;;7.42;76.69;98162.97;1781170;79;25745;-83
2021/10/19 00:10:23;;;;;;;30.75;19.75;;;;;;;7.38;76.67;98167.51;1775594;79;25268;-83
2021/10/19 00:12:49;;;;;;;31.17;19.30;;;;;;;7.31;76.57;98166.03;1775302;79;25869;-83
2021/10/19 00:15:18;;;;;;;31.15;17.65;;;;;;;7.28;76.55;98170.39;1781223;79;25907;-83
2021/10/19 00:17:47;;;;;;;25.00;16.67;;;;;;;7.24;76.54;98166.40;1781104;79;28310;-84
2021/10/19 00:20:16;;;;;;;26.55;16.62;;;;;;;7.20;76.37;98173.11;1781136;79;26434;-83
2021/10/19 00:22:44;;;;;;;27.52;17.85;;;;;;;7.08;76.14;98171.29;1781165;79;25754;-83
2021/10/19 00:25:15;;;;;;;29.50;18.23;;;;;;;6.97;76.19;98173.49;1781061;79;26721;-84
2021/10/19 00:27:39;;;;;;;21.35;14.95;;;;;;;6.91;76.14;98175.50;1758648;79;25705;-84
2021/10/19 00:30:09;;;;;;;23.70;14.73;;;;;;;6.86;76.26;98177.36;1781084;79;27384;-84
2021/10/19 00:32:37;;;;;;;21.95;14.47;;;;;;;6.80;76.23;98177.52;1781246;79;25684;-83
2021/10/19 00:35:05;;;;;;;23.38;14.23;;;;;;;6.74;76.18;98182.73;1781163;79;25745;-83
2021/10/19 00:37:32;;;;;;;29.07;17.30;;;;;;;6.67;76.26;98173.17;1780765;79;26619;-84
2021/10/19 00:39:59;;;;;;;25.62;17.35;;;;;;;6.66;76.47;98175.52;1780808;79;26252;-83
2021/10/19 00:42:26;;;;;;;26.15;16.82;;;;;;;6.67;76.52;98177.19;1780752;80;26816;-83
2021/10/19 00:44:52;;;;;;;29.63;17.62;;;;;;;6.64;76.43;98176.17;1780874;79;25761;-83
2021/10/19 00:47:20;;;;;;;26.68;18.05;;;;;;;6.60;76.31;98174.02;1781217;79;25774;-83
2021/10/19 00:49:48;;;;;;;26.25;16.17;;;;;;;6.52;76.22;98173.49;1781193;80;26170;-83
2021/10/19 00:52:16;;;;;;;25.95;16.70;;;;;;;6.48;76.28;98181.56;1759389;80;25800;-83
2021/10/19 00:54:43;;;;;;;29.20;17.75;;;;;;;6.42;76.26;98178.19;1751330;80;27538;-84
2021/10/19 00:57:10;;;;;;;29.20;17.82;;;;;;;6.35;76.36;98177.19;1778645;79;25285;-83
2021/10/19 00:59:43;;;;;;;27.40;17.55;;;;;;;6.33;76.54;98181.37;1781030;79;25750;-83
2021/10/19 01:02:12;;;;;;;27.98;17.20;;;;;;;6.34;76.55;98183.55;1781114;79;25753;-84
2021/10/19 01:04:40;;;;;;;26.15;15.70;;;;;;;6.30;76.49;98184.88;1781190;79;25749;-83
2021/10/19 01:07:12;;;;;;;25.92;15.13;;;;;;;6.27;76.42;98186.07;1781104;79;27456;-83
2021/10/19 01:09:40;;;;;;;25.17;15.93;;;;;;;6.24;76.38;98185.55;1781075;80;28388;-83
2021/10/19 01:12:09;;;;;;;28.95;16.15;;;;;;;6.14;76.38;98193.75;1781005;79;25777;-83
2021/10/19 01:14:37;;;;;;;23.18;15.80;;;;;;;6.11;76.48;98197.59;1781047;79;25740;-84
2021/10/19 01:17:04;;;;;;;29.55;17.37;;;;;;;6.09;76.52;98188.87;1781071;79;25706;-83
2021/10/19 01:19:31;;;;;;;26.00;16.05;;;;;;;6.08;76.57;98196.57;1772711;79;28309;-84
2021/10/19 01:22:01;;;;;;;27.50;16.82;;;;;;;6.07;76.62;98188.19;1768083;80;25801;-83
2021/10/19 01:24:28;;;;;;;27.93;17.50;;;;;;;6.05;76.56;98198.23;1759253;79;25769;-84
2021/10/19 01:26:55;;;;;;;26.48;16.65;;;;;;;6.00;76.60;98191.20;1781098;80;25714;-83
2021/10/19 01:29:22;;;;;;;27.02;17.60;;;;;;;5.97;76.61;98184.82;1743867;80;25837;-83
2021/10/19 01:31:52;;;;;;;26.10;15.83;;;;;;;5.93;76.51;98187.48;1742540;82;27302;-84
2021/10/19 01:34:19;;;;;;;26.77;16.57;;;;;;;5.90;76.56;98187.83;1728548;82;25832;-83
2021/10/19 01:36:47;;;;;;;26.45;16.52;;;;;;;5.88;76.67;98179.58;1728571;82;25898;-83
2021/10/19 01:39:15;;;;;;;24.80;16.05;;;;;;;5.90;76.67;98183.81;1704751;83;26423;-84
2021/10/19 01:41:42;;;;;;;25.10;16.23;;;;;;;5.87;76.56;98182.75;1708091;82;25721;-83
2021/10/19 01:44:09;;;;;;;27.65;15.08;;;;;;;5.82;76.50;98185.06;1728476;82;28030;-83
2021/10/19 01:46:36;;;;;;;24.57;14.78;;;;;;;5.73;76.39;98177.52;1728556;82;25857;-84
2021/10/19 01:49:02;;;;;;;27.87;17.92;;;;;;;5.65;76.46;98177.50;1728571;82;25292;-83
2021/10/19 01:51:29;;;;;;;30.80;17.50;;;;;;;5.61;76.50;98175.29;1728448;81;25832;-83
2021/10/19 01:53:56;;;;;;;33.25;17.87;;;;;;;5.55;76.66;98164.73;1728589;82;25725;-83
2021/10/19 01:56:23;;;;;;;34.20;18.25;;;;;;;5.52;76.77;98168.23;1728658;82;27469;-83
2021/10/19 01:58:49;;;;;;;29.55;17.25;;;;;;;5.49;76.83;98167.20;1728432;82;25782;-83
2021/10/19 02:01:16;;;;;;;31.02;16.80;;;;;;;5.48;76.82;98168.20;1728510;82;26304;-84
2021/10/19 02:03:42;;;;;;;29.27;17.52;;;;;;;5.44;76.80;98171.69;1728479;81;26438;-84
2021/10/19 02:06:09;;;;;;;30.10;17.30;;;;;;;5.35;76.66;98166.80;1728497;82;25725;-83
2021/10/19 02:08:36;;;;;;;32.67;17.25;;;;;;;5.30;76.81;98174.50;1728504;82;27367;-84
2021/10/19 02:11:02;;;;;;;27.45;17.73;;;;;;;5.30;76.83;98169.14;1728533;82;26419;-83
2021/10/19 02:13:29;;;;;;;26.95;16.27;;;;;;;5.26;76.77;98175.80;1728524;82;25700;-83
2021/10/19 02:15:55;;;;;;;31.50;17.57;;;;;;;5.23;76.73;98178.79;1728516;82;26135;-83
2021/10/19 02:18:22;;;;;;;25.40;15.20;;;;;;;5.19;76.56;98176.11;1728691;82;25824;-83
2021/10/19 02:20:48;;;;;;;27.85;16.95;;;;;;;5.17;76.63;98175.92;1722793;82;27547;-83
2021/10/19 02:23:15;;;;;;;29.02;17.20;;;;;;;5.12;76.54;98177.72;1728368;82;25811;-83
2021/10/19 02:25:42;;;;;;;28.95;17.62;;;;;;;5.04;76.55;98175.84;1728490;81;26251;-83
2021/10/19 02:28:08;;;;;;;29.18;16.82;;;;;;;4.99;76.63;98169.28;1731222;82;26480;-83
2021/10/19 02:30:35;;;;;;;30.72;16.52;;;;;;;4.91;76.71;98176.77;1737733;81;25788;-83
2021/10/19 02:33:01;;;;;;;28.60;16.42;;;;;;;4.89;76.92;98181.92;1737818;81;28511;-83
2021/10/19 02:35:28;;;;;;;31.15;17.10;;;;;;;4.92;77.05;98176.27;1737835;81;25780;-83
2021/10/19 02:37:55;;;;;;;28.75;15.88;;;;;;;4.94;77.06;98176.45;1737919;81;25806;-83
2021/10/19 02:40:21;;;;;;;24.07;15.43;;;;;;;4.93;77.03;98168.09;1737624;81;25765;-83
2021/10/19 02:42:48;;;;;;;24.72;14.75;;;;;;;4.92;77.02;98168.24;1738058;81;25846;-83
2021/10/19 02:45:15;;;;;;;27.42;16.12;;;;;;;4.90;76.97;98172.41;1737837;81;27415;-84
2021/10/19 02:47:42;;;;;;;27.77;16.05;;;;;;;4.89;77.06;98167.21;1737537;81;26493;-83
2021/10/19 02:50:10;;;;;;;27.45;15.38;;;;;;;4.89;77.09;98172.06;1736825;81;25818;-83
2021/10/19 02:52:38;;;;;;;26.82;16.32;;;;;;;4.88;77.11;98168.20;1737888;81;26111;-83
2021/10/19 02:55:07;;;;;;;28.67;15.63;;;;;;;4.82;77.14;98168.35;1737988;81;25302;-83
2021/10/19 02:57:34;;;;;;;28.80;16.73;;;;;;;4.78;77.19;98160.78;1738060;81;27449;-83
2021/10/19 03:00:00;;;;;;;30.32;17.90;;;;;;;4.75;77.24;98170.45;1737853;81;25743;-83
2021/10/19 03:02:27;;;;;;;27.00;16.10;;;;;;;4.75;77.30;98166.44;1737950;81;25755;-83
2021/10/19 03:04:53;;;;;;;26.68;15.35;;;;;;;4.77;77.38;98159.10;1737862;81;25787;-83
2021/10/19 03:07:20;;;;;;;26.30;16.75;;;;;;;4.77;77.37;98156.42;1738055;81;25649;-83
2021/10/19 03:09:47;;;;;;;26.25;15.58;;;;;;;4.73;77.32;98156.39;1738156;81;27601;-83
2021/10/19 03:12:13;;;;;;;24.40;15.30;;;;;;;4.68;77.26;98165.73;1737991;81;25855;-83
2021/10/19 03:14:40;;;;;;;21.27;14.20;;;;;;;4.62;77.31;98156.15;1738151;81;25772;-83
2021/10/19 03:17:07;;;;;;;32.53;14.90;;;;;;;4.55;77.34;98155.94;1738027;81;26099;-83
2021/10/19 03:19:33;;;;;;;23.77;13.58;;;;;;;4.52;77.48;98158.08;1737976;81;26408;-83
2021/10/19 03:22:00;;;;;;;34.15;15.85;;;;;;;4.49;77.54;98157.88;1737992;81;28118;-83
2021/10/19 03:24:26;;;;;;;29.48;15.05;;;;;;;4.51;77.69;98157.23;1738072;81;26331;-83
2021/10/19 03:26:53;;;;;;;30.50;15.00;;;;;;;4.53;77.71;98163.27;1738018;81;26435;-83
2021/10/19 03:29:19;;;;;;;29.52;14.73;;;;;;;4.50;77.62;98153.38;1731232;81;26621;-83
2021/10/19 03:31:46;;;;;;;22.55;14.47;;;;;;;4.50;77.60;98159.56;1727553;82;25736;-84
2021/10/19 03:34:13;;;;;;;24.92;14.93;;;;;;;4.44;77.58;98164.21;1727601;82;27379;-84
2021/10/19 03:36:39;;;;;;;25.85;14.60;;;;;;;4.45;77.64;98160.55;1727498;82;25754;-83
2021/10/19 03:39:06;;;;;;;27.77;14.90;;;;;;;4.40;77.51;98157.98;1727701;82;25717;-83
2021/10/19 03:41:33;;;;;;;27.37;16.12;;;;;;;4.31;77.56;98155.25;1727642;82;25846;-83
2021/10/19 03:43:59;;;;;;;35.80;18.00;;;;;;;4.29;77.76;98159.06;1727629;82;25855;-83
2021/10/19 03:46:26;;;;;;;39.58;20.85;;;;;;;4.30;77.86;98160.73;1727525;81;28476;-83
2021/10/19 03:48:52;;;;;;;45.38;25.77;;;;;;;4.27;77.91;98157.88;1727117;82;25270;-84
2021/10/19 03:51:19;;;;;;;44.65;27.17;;;;;;;4.29;77.98;98153.71;1727486;82;25681;-83
2021/10/19 03:53:45;;;;;;;50.52;29.32;;;;;;;4.26;77.97;98156.69;1727566;82;25777;-84
2021/10/19 03:56:12;;;;;;;48.02;28.52;;;;;;;4.28;78.07;98156.04;1727710;82;25815;-84
2021/10/19 03:58:39;;;;;;;51.55;28.90;;;;;;;4.29;78.06;98157.72;1727613;82;27432;-84
2021/10/19 04:01:05;;;;;;;49.35;26.90;;;;;;;4.29;78.00;98159.06;1727536;82;25721;-84
2021/10/19 04:03:32;;;;;;;51.95;28.38;;;;;;;4.28;77.82;98157.37;1727544;81;25880;-84
2021/10/19 04:05:59;;;;;;;47.95;28.50;;;;;;;4.25;77.68;98153.67;1727541;82;25678;-84
2021/10/19 04:08:25;;;;;;;42.58;19.48;;;;;;;4.22;77.62;98151.33;1727577;82;25716;-84
2021/10/19 04:10:52;;;;;;;31.80;16.62;;;;;;;4.18;77.59;98150.78;1727644;81;27433;-84
2021/10/19 04:13:18;;;;;;;31.65;15.50;;;;;;;4.16;77.55;98146.58;1727619;82;25774;-84
2021/10/19 04:15:45;;;;;;;30.25;15.53;;;;;;;4.15;77.52;98146.23;1727575;82;25836;-84
2021/10/19 04:18:11;;;;;;;29.07;15.53;;;;;;;4.12;77.39;98145.19;1727555;82;25908;-84
2021/10/19 04:20:38;;;;;;;28.60;15.40;;;;;;;4.08;77.36;98155.37;1727606;81;25250;-84
2021/10/19 04:23:04;;;;;;;32.60;16.02;;;;;;;4.05;77.28;98149.48;1727247;82;27431;-83
2021/10/19 04:25:31;;;;;;;29.85;16.27;;;;;;;4.03;77.33;98146.95;1727421;82;25764;-83
2021/10/19 04:27:58;;;;;;;37.53;17.00;;;;;;;4.02;77.35;98147.11;1726568;81;25782;-83
2021/10/19 04:30:24;;;;;;;40.30;20.92;;;;;;;4.01;77.42;98136.91;1707673;82;25800;-84
2021/10/19 04:32:51;;;;;;;45.85;23.57;;;;;;;3.98;77.46;98130.04;1735904;81;26357;-83
2021/10/19 04:35:18;;;;;;;53.10;28.30;;;;;;;3.98;77.48;98134.05;1738017;81;28073;-84
2021/10/19 04:37:44;;;;;;;52.67;27.37;;;;;;;3.94;77.46;98139.37;1737863;81;25868;-84
2021/10/19 04:40:12;;;;;;;45.10;24.70;;;;;;;3.83;77.50;98143.59;1737889;81;26403;-84
2021/10/19 04:42:39;;;;;;;45.12;23.75;;;;;;;3.77;77.65;98154.87;1737999;81;25786;-83
2021/10/19 04:45:08;;;;;;;50.08;24.15;;;;;;;3.73;77.79;98159.34;1738094;81;25725;-84
2021/10/19 04:47:35;;;;;;;42.38;22.98;;;;;;;3.74;77.99;98157.86;1738098;81;28392;-84
2021/10/19 04:50:02;;;;;;;44.98;25.10;;;;;;;3.75;77.95;98161.34;1717400;81;25897;-84
2021/10/19 04:52:29;;;;;;;49.00;25.40;;;;;;;3.75;77.91;98159.52;1737979;81;25847;-83
2021/10/19 04:54:56;;;;;;;63.95;27.17;;;;;;;3.74;77.83;98160.53;1737929;81;26271;-83
2021/10/19 04:57:22;;;;;;;93.35;38.17;;;;;;;3.76;77.82;98158.53;1738070;81;25310;-83
2021/10/19 04:59:49;;;;;;;82.60;38.95;;;;;;;3.73;77.82;98152.17;1737911;81;26966;-85
2021/10/19 05:02:15;;;;;;;68.15;32.10;;;;;;;3.73;77.87;98153.52;1737952;81;26508;-84
2021/10/19 05:04:42;;;;;;;60.85;28.23;;;;;;;3.72;77.85;98154.50;1738000;81;25744;-84
2021/10/19 05:07:09;;;;;;;47.65;25.50;;;;;;;3.68;77.74;98162.45;1737947;81;25806;-84
2021/10/19 05:09:36;;;;;;;44.45;22.45;;;;;;;3.61;77.73;98148.03;1738021;81;25649;-84
2021/10/19 05:12:03;;;;;;;49.13;23.38;;;;;;;3.62;77.92;98145.71;1738005;81;27538;-84
2021/10/19 05:14:29;;;;;;;44.15;21.35;;;;;;;3.62;77.94;98143.04;1737946;81;25844;-84
2021/10/19 05:16:56;;;;;;;44.58;20.12;;;;;;;3.60;77.92;98151.69;1737921;81;26347;-84
2021/10/19 05:19:23;;;;;;;37.33;18.62;;;;;;;3.56;77.87;98152.97;1737992;81;26483;-84
2021/10/19 05:21:49;;;;;;;40.48;19.80;;;;;;;3.54;77.94;98159.78;1737936;81;25880;-84
2021/10/19 05:24:16;;;;;;;41.75;18.42;;;;;;;3.53;77.87;98157.26;1737696;81;27434;-84
2021/10/19 05:26:43;;;;;;;34.27;20.15;;;;;;;3.49;77.92;98158.08;1716974;82;26321;-84
2021/10/19 05:29:09;;;;;;;42.70;22.35;;;;;;;3.50;78.00;98157.58;1726023;81;26478;-84
2021/10/19 05:31:36;;;;;;;44.48;22.70;;;;;;;3.51;78.09;98164.08;1737693;81;25745;-84
2021/10/19 05:34:02;;;;;;;40.67;22.07;;;;;;;3.53;78.18;98159.93;1723036;81;26369;-84
2021/10/19 05:36:29;;;;;;;38.00;21.68;;;;;;;3.55;78.24;98153.95;1708639;82;27560;-84
2021/10/19 05:38:56;;;;;;;45.75;25.23;;;;;;;3.58;78.30;98154.51;1735613;81;25779;-84
2021/10/19 05:41:22;;;;;;;42.27;24.23;;;;;;;3.63;78.39;98158.05;1737645;81;25819;-85
2021/10/19 05:43:49;;;;;;;48.38;27.62;;;;;;;3.67;78.41;98161.27;1738026;81;26413;-84
2021/10/19 05:46:16;;;;;;;55.30;29.42;;;;;;;3.69;78.44;98170.81;1738083;81;25838;-84
2021/10/19 05:48:43;;;;;;;57.03;29.98;;;;;;;3.70;78.46;98164.48;1737949;81;27668;-84
2021/10/19 05:51:09;;;;;;;60.05;30.43;;;;;;;3.71;78.48;98166.16;1737849;81;25785;-85
2021/10/19 05:53:37;;;;;;;64.97;31.73;;;;;;;3.75;78.51;98170.69;1737812;81;25771;-85
2021/10/19 05:56:04;;;;;;;63.45;29.82;;;;;;;3.76;78.51;98175.88;1737964;81;25794;-84
2021/10/19 05:58:31;;;;;;;53.20;26.33;;;;;;;3.78;78.52;98173.91;1738076;81;25789;-84
2021/10/19 06:00:57;;;;;;;52.10;24.67;;;;;;;3.81;78.59;98178.95;1737901;81;27015;-84
2021/10/19 06:03:24;;;;;;;51.73;23.85;;;;;;;3.87;78.64;98187.69;1738081;81;25788;-84
2021/10/19 06:05:50;;;;;;;46.30;22.93;;;;;;;3.91;78.65;98183.73;1738003;81;25326;-84
2021/10/19 06:08:17;;;;;;;43.92;22.45;;;;;;;3.95;78.70;98182.45;1737947;81;25911;-84
2021/10/19 06:10:44;;;;;;;44.20;23.35;;;;;;;3.99;78.75;98187.82;1737871;81;25869;-84
2021/10/19 06:13:10;;;;;;;45.88;22.55;;;;;;;4.04;78.78;98185.20;1738022;81;27429;-84
2021/10/19 06:15:38;;;;;;;45.20;22.37;;;;;;;4.06;78.79;98188.56;1737880;81;25732;-85
2021/10/19 06:18:04;;;;;;;46.13;22.32;;;;;;;4.11;78.82;98187.10;1738120;81;26349;-85
2021/10/19 06:20:31;;;;;;;46.50;23.50;;;;;;;4.14;78.87;98193.98;1737925;81;25801;-85
2021/10/19 06:22:57;;;;;;;47.27;22.80;;;;;;;4.14;78.92;98193.98;1737999;81;25790;-84
2021/10/19 06:25:24;;;;;;;37.70;21.12;;;;;;;4.16;79.01;98195.52;1737863;81;27485;-85
2021/10/19 06:27:50;;;;;;;37.33;20.90;;;;;;;4.22;79.13;98198.94;1737846;81;25723;-85
2021/10/19 06:30:17;;;;;;;42.17;21.15;;;;;;;4.28;79.20;98200.98;1737952;81;25279;-84
2021/10/19 06:32:44;;;;;;;44.75;20.20;;;;;;;4.36;79.21;98204.22;1731442;81;26382;-85
2021/10/19 06:35:10;;;;;;;46.15;20.17;;;;;;;4.42;79.31;98201.44;1727595;82;25762;-84
2021/10/19 06:37:38;;;;;;;36.93;20.37;;;;;;;4.48;79.32;98208.34;1727401;82;28250;-84
2021/10/19 06:40:07;;;;;;;35.13;19.85;;;;;;;4.56;79.38;98211.59;1727360;82;25867;-83
2021/10/19 06:42:35;;;;;;;41.63;21.40;;;;;;;4.60;79.42;98208.94;1727838;82;26413;-82
2021/10/19 06:45:04;;;;;;;37.58;21.65;;;;;;;4.63;79.44;98206.80;1727617;81;25781;-84
2021/10/19 06:47:31;;;;;;;39.95;21.65;;;;;;;4.68;79.53;98199.17;1727686;83;25744;-83
2021/10/19 06:49:58;;;;;;;49.00;23.42;;;;;;;4.74;79.64;98192.84;1727615;82;27597;-84
2021/10/19 06:52:24;;;;;;;35.75;22.13;;;;;;;4.82;79.77;98192.92;1727680;82;25780;-83
2021/10/19 06:54:51;;;;;;;38.35;22.27;;;;;;;4.91;79.95;98186.63;1727488;82;25820;-83
2021/10/19 06:57:18;;;;;;;32.67;19.50;;;;;;;5.01;80.13;98187.36;1727658;82;25728;-83
2021/10/19 06:59:44;;;;;;;32.28;19.48;;;;;;;5.13;80.29;98187.93;1727699;82;25685;-84
2021/10/19 07:02:11;;;;;;;39.25;20.40;;;;;;;5.24;80.38;98187.66;1727606;82;28421;-83
2021/10/19 07:04:37;;;;;;;48.87;21.52;;;;;;;5.36;80.45;98188.56;1727473;82;25925;-83
2021/10/19 07:07:04;;;;;;;44.83;23.30;;;;;;;5.50;80.59;98184.45;1727626;81;26435;-83
2021/10/19 07:09:31;;;;;;;48.17;24.02;;;;;;;5.65;80.70;98180.67;1727662;82;25899;-83
2021/10/19 07:12:02;;;;;;;48.63;24.60;;;;;;;5.79;80.73;98181.40;1727657;82;25849;-84
2021/10/19 07:14:29;;;;;;;47.30;24.32;;;;;;;5.93;80.70;98188.81;1727603;82;28285;-84
2021/10/19 07:16:56;;;;;;;50.60;25.00;;;;;;;6.08;80.74;98188.53;1727482;82;25886;-83
2021/10/19 07:19:22;;;;;;;40.05;21.62;;;;;;;6.26;80.83;98188.91;1727525;82;26495;-83
2021/10/19 07:21:49;;;;;;;40.00;20.48;;;;;;;6.42;80.95;98180.36;1727600;82;26437;-83
2021/10/19 07:24:15;;;;;;;32.88;20.43;;;;;;;6.61;80.98;98180.56;1727648;82;25718;-83
2021/10/19 07:26:42;;;;;;;24.10;15.90;;;;;;;6.81;81.02;98168.47;1727566;81;27547;-83
2021/10/19 07:29:10;;;;;;;23.65;15.32;;;;;;;7.03;80.93;98162.89;1727429;81;25791;-83
2021/10/19 07:31:37;;;;;;;15.85;11.68;;;;;;;7.27;80.81;98167.38;1727524;81;25851;-83
2021/10/19 07:34:03;;;;;;;15.95;10.08;;;;;;;7.53;80.53;98170.66;1711719;82;25982;-82
2021/10/19 07:36:30;;;;;;;18.50;10.70;;;;;;;7.77;80.25;98159.47;1711609;82;25877;-82
2021/10/19 07:38:56;;;;;;;17.30;9.78;;;;;;;8.03;80.06;98157.31;1711781;82;28080;-82
2021/10/19 07:41:23;;;;;;;17.02;10.18;;;;;;;8.26;79.95;98155.48;1711504;82;26002;-82
2021/10/19 07:43:50;;;;;;;11.88;8.25;;;;;;;8.52;79.81;98149.78;1711686;82;25767;-81
2021/10/19 07:46:16;;;;;;;15.08;8.38;;;;;;;8.76;79.51;98147.40;1711664;82;26471;-82
2021/10/19 07:48:43;;;;;;;11.25;7.97;;;;;;;9.03;79.21;98141.93;1711613;82;25734;-82
2021/10/19 07:51:09;;;;;;;10.90;7.70;;;;;;;9.27;79.00;98134.94;1711660;82;27372;-82
2021/10/19 07:53:36;;;;;;;13.88;7.80;;;;;;;9.52;78.60;98134.66;1711605;82;25815;-83
2021/10/19 07:56:03;;;;;;;13.90;7.20;;;;;;;9.77;78.41;98135.19;1711471;82;25755;-83
2021/10/19 07:58:29;;;;;;;11.18;7.37;;;;;;;10.03;78.24;98141.71;1711690;82;25770;-83
2021/10/19 08:00:56;;;;;;;11.18;6.75;;;;;;;10.25;77.62;98137.23;1711607;82;25343;-85
2021/10/19 08:03:22;;;;;;;9.98;5.85;;;;;;;10.50;77.46;98138.21;1711583;82;27623;-85
2021/10/19 08:05:49;;;;;;;8.20;6.17;;;;;;;10.74;77.27;98131.90;1711608;82;26351;-82
2021/10/19 08:08:20;;;;;;;9.85;6.10;;;;;;;10.98;76.82;98133.34;1711641;82;25292;-84
2021/10/19 08:10:46;;;;;;;8.38;6.45;;;;;;;11.21;76.47;98141.19;1711259;82;26707;-84
2021/10/19 08:13:15;;;;;;;10.10;5.92;;;;;;;11.47;76.02;98139.17;1711632;82;25821;-85
2021/10/19 08:15:41;;;;;;;8.78;6.15;;;;;;;11.69;75.60;98137.20;1732294;81;27575;-84
2021/10/19 08:18:08;;;;;;;8.68;5.58;;;;;;;11.88;74.76;98135.13;1745113;81;26330;-85
2021/10/19 08:20:36;;;;;;;9.45;5.58;;;;;;;12.11;74.77;98132.92;1745142;80;25738;-85
2021/10/19 08:23:03;;;;;;;5.53;4.28;;;;;;;12.40;74.65;98127.70;1745184;81;26563;-85
2021/10/19 08:25:30;;;;;;;6.03;3.90;;;;;;;12.61;73.64;98127.52;1745172;80;25789;-85
2021/10/19 08:27:56;;;;;;;5.10;3.80;;;;;;;12.87;73.42;98117.73;1745182;80;27194;-85
2021/10/19 08:30:24;;;;;;;4.53;3.27;;;;;;;13.16;73.11;98123.29;1744964;81;25785;-86
2021/10/19 08:32:51;;;;;;;4.55;3.83;;;;;;;13.45;72.30;98113.84;1757012;79;25291;-85
2021/10/19 08:35:22;;;;;;;4.20;3.30;;;;;;;13.68;71.79;98116.38;1777867;79;25782;-86
2021/10/19 08:37:50;;;;;;;8.03;3.70;;;;;;;13.91;71.02;98111.80;1740673;79;25822;-85
2021/10/19 08:40:17;;;;;;;4.22;3.33;;;;;;;14.15;70.78;98113.45;1756467;80;27389;-85
2021/10/19 08:42:47;;;;;;;3.52;2.95;;;;;;;14.42;70.36;98105.50;1771299;80;25825;-88
2021/10/19 08:45:17;;;;;;;4.83;3.08;;;;;;;14.67;69.45;98110.45;1762781;80;25669;-86
2021/10/19 08:47:46;;;;;;;3.15;2.83;;;;;;;14.78;68.89;98104.30;1763153;80;26419;-87
2021/10/19 08:50:15;;;;;;;4.72;3.55;;;;;;;14.94;68.39;98105.65;1719496;81;25784;-86
2021/10/19 08:52:41;;;;;;;7.50;3.60;;;;;;;15.08;67.69;98106.37;1721735;81;27364;-86
2021/10/19 08:55:08;;;;;;;6.33;3.58;;;;;;;15.26;67.72;98111.83;1729159;81;25289;-86
2021/10/19 08:57:35;;;;;;;4.83;3.70;;;;;;;15.48;67.22;98106.27;1755559;80;25705;-86
2021/10/19 09:00:05;;;;;;;3.37;3.08;;;;;;;15.63;66.71;98109.18;1735168;80;26359;-86
2021/10/19 09:02:45;;;;;;;3.70;3.02;;;;;;;15.75;66.45;98107.36;1756468;80;26484;-86
2021/10/19 09:05:20;;;;;;;4.53;3.40;;;;;;;15.87;65.64;98105.55;1756334;80;28220;-86
2021/10/19 09:08:08;;;;;;;3.95;3.30;;;;;;;15.92;65.36;98111.68;1756310;80;25870;-85
2021/10/19 09:10:41;;;;;;;5.30;3.58;;;;;;;16.00;64.87;98108.11;1756531;80;25243;-86
2021/10/19 09:13:11;;;;;;;3.80;2.75;;;;;;;16.06;64.41;98108.53;1756450;80;26018;-86
2021/10/19 09:15:42;;;;;;;3.62;2.95;;;;;;;16.15;64.09;98107.19;1737879;80;25778;-85
2021/10/19 09:18:12;;;;;;;6.40;3.70;;;;;;;16.19;63.46;98105.64;1733364;80;27548;-84
2021/10/19 09:20:50;;;;;;;4.15;3.58;;;;;;;16.27;63.32;98105.04;1756224;80;25804;-85
2021/10/19 09:23:17;;;;;;;5.87;3.30;;;;;;;16.40;63.04;98096.68;1755064;80;25708;-84
2021/10/19 09:25:47;;;;;;;4.42;3.52;;;;;;;16.54;62.64;98098.16;1756389;80;26161;-86
2021/10/19 09:28:17;;;;;;;5.22;3.75;;;;;;;16.60;62.19;98094.48;1734791;80;25827;-84
2021/10/19 09:30:50;;;;;;;6.30;3.92;;;;;;;16.68;62.44;98094.70;1728105;81;27535;-85
2021/10/19 09:33:19;;;;;;;9.18;3.80;;;;;;;16.80;62.09;98092.30;1755759;80;26444;-89
2021/10/19 09:35:51;;;;;;;4.50;3.92;;;;;;;16.89;61.39;98085.46;1756360;80;25428;-88
2021/10/19 09:38:18;;;;;;;5.45;4.00;;;;;;;16.97;61.36;98075.26;1756461;80;26575;-85
2021/10/19 09:40:55;;;;;;;7.55;3.83;;;;;;;17.02;61.08;98079.48;1755919;81;25758;-86
2021/10/19 09:43:26;;;;;;;5.53;4.05;;;;;;;17.10;60.86;98079.13;1756289;81;27947;-85
2021/10/19 09:45:56;;;;;;;5.42;3.80;;;;;;;17.13;60.33;98071.84;1756215;80;25743;-86
2021/10/19 09:48:32;;;;;;;7.10;4.00;;;;;;;17.19;60.38;98073.61;1756338;80;25680;-86
2021/10/19 09:51:01;;;;;;;4.28;3.58;;;;;;;17.24;60.09;98081.92;1756315;80;26406;-87
2021/10/19 09:53:29;;;;;;;4.45;3.85;;;;;;;17.34;59.56;98081.31;1756372;80;25704;-86
2021/10/19 09:55:58;;;;;;;5.33;3.20;;;;;;;17.38;59.70;98073.80;1756068;80;27421;-86
2021/10/19 09:58:24;;;;;;;5.25;4.35;;;;;;;17.47;59.35;98068.79;1756279;80;26219;-86
2021/10/19 10:00:52;;;;;;;4.42;3.80;;;;;;;17.41;58.68;98067.00;1756361;80;25719;-87
2021/10/19 10:03:19;;;;;;;3.77;3.40;;;;;;;17.47;58.96;98065.53;1762293;80;26619;-87
2021/10/19 10:05:47;;;;;;;5.22;2.92;;;;;;;17.59;58.55;98062.78;1764917;80;25733;-85
2021/10/19 10:08:20;;;;;;;4.08;3.50;;;;;;;17.64;58.33;98058.80;1734030;81;27387;-86
2021/10/19 10:10:55;;;;;;;3.85;3.37;;;;;;;17.74;58.10;98059.58;1726580;81;25778;-85
2021/10/19 10:13:23;;;;;;;5.25;3.22;;;;;;;17.82;58.07;98059.20;1733560;81;25688;-86
2021/10/19 10:15:51;;;;;;;4.35;3.00;;;;;;;17.97;57.92;98054.05;1726454;81;26322;-85
2021/10/19 10:18:32;;;;;;;4.45;3.42;;;;;;;18.06;57.49;98043.02;1740338;81;25765;-86
2021/10/19 10:20:58;;;;;;;3.67;2.47;;;;;;;18.15;57.14;98050.28;1739946;81;27440;-86
2021/10/19 10:23:29;;;;;;;3.12;2.72;;;;;;;18.17;56.63;98052.23;1754605;81;25745;-86
2021/10/19 10:25:57;;;;;;;3.87;3.47;;;;;;;18.20;56.42;98047.13;1745939;81;26063;-86
2021/10/19 10:28:31;;;;;;;3.33;2.80;;;;;;;18.25;56.38;98043.64;1740277;81;25803;-86
2021/10/19 10:31:03;;;;;;;3.30;2.00;;;;;;;18.37;56.05;98034.84;1740285;81;25275;-85
2021/10/19 10:33:42;;;;;;;2.85;2.10;;;;;;;18.47;55.83;98031.48;1739960;81;27380;-85
2021/10/19 10:36:13;;;;;;;3.60;2.58;;;;;;;18.53;55.51;98027.21;1740237;81;25695;-86
2021/10/19 10:38:55;;;;;;;4.00;2.72;;;;;;;18.68;55.40;98022.58;1740221;81;25747;-86
2021/10/19 10:41:22;;;;;;;4.05;2.22;;;;;;;18.79;54.97;98018.93;1761682;81;25775;-85
2021/10/19 10:44:00;;;;;;;2.95;2.20;;;;;;;18.87;54.41;98014.40;1740217;81;25270;-85
2021/10/19 10:46:28;;;;;;;3.45;2.60;;;;;;;18.89;54.17;98008.69;1739899;81;27364;-86
2021/10/19 10:48:56;;;;;;;2.35;2.15;;;;;;;18.98;53.95;98002.53;1739951;81;25784;-86
2021/10/19 10:51:33;;;;;;;2.80;2.20;;;;;;;19.08;53.86;97995.01;1719348;81;25757;-85
2021/10/19 10:54:00;;;;;;;2.08;1.60;;;;;;;19.11;53.79;97990.95;1740226;81;26043;-85
2021/10/19 10:56:27;;;;;;;3.12;1.75;;;;;;;18.99;52.88;97987.78;1719021;81;25737;-85
2021/10/19 10:58:54;;;;;;;5.22;1.70;;;;;;;18.98;52.81;97988.86;1740106;81;28379;-85
2021/10/19 11:01:28;;;;;;;2.05;1.45;;;;;;;19.04;52.82;97985.67;1740166;81;25288;-86
2021/10/19 11:04:08;;;;;;;1.75;1.52;;;;;;;19.10;52.42;97990.66;1750629;81;25775;-85
2021/10/19 11:06:37;;;;;;;1.77;1.35;;;;;;;19.05;52.22;97992.27;1770247;79;26562;-84
2021/10/19 11:09:13;;;;;;;1.57;1.32;;;;;;;18.99;51.74;97983.67;1713358;81;25716;-86
2021/10/19 11:11:47;;;;;;;1.35;1.25;;;;;;;19.04;51.71;97979.66;1726356;81;27379;-85
2021/10/19 11:14:17;;;;;;;0.80;0.80;;;;;;;19.13;51.45;97988.80;1740053;81;25838;-85
2021/10/19 11:16:50;;;;;;;1.30;1.12;;;;;;;19.20;51.18;97975.78;1739925;81;25762;-85
2021/10/19 11:19:23;;;;;;;2.35;1.20;;;;;;;19.34;51.04;97970.20;1720172;82;25834;-86
2021/10/19 11:21:57;;;;;;;1.35;0.90;;;;;;;19.44;50.51;97967.05;1763164;80;25607;-84
2021/10/19 11:24:27;;;;;;;1.50;1.20;;;;;;;19.58;50.35;97980.39;1777828;79;28312;-86
2021/10/19 11:26:55;;;;;;;1.20;1.00;;;;;;;19.62;49.93;97971.42;1777711;79;25702;-85
2021/10/19 11:29:22;;;;;;;1.00;0.90;;;;;;;19.65;49.34;97963.23;1781504;79;25800;-85